Port Sulphur, Louisiana
Current Conditions -  °F | °C
As of 7:51 PM on Wednesday 17 Dec 2014 (Local Time) from KBVE Reporting Station
Clear Clear  
Wind Chill: 53°   Ceiling: Unl
Heat Index: 53°   Visibility: 10mi
Dew Point: 49°   Wind: 5mph
Humidity: 86%   Direction: 80°E
Pressure: 30.21"   Gusts: NA
Location:  29.49°N, 89.71°W
Report Text: KBVE 180151Z AUTO 08004KT 10SM CLR 12/09 A3021 RMK AO2 SLP229 T01170094
Loading
Personal Weather Stations






























Interactive Weather Map New forecast layout! Learn more

10-Day Weather Forecast

Advertisements
Track Severe Weather on mobile